Time;durP1;ratioP1;P1;durP2;ratioP2;P2;SDS_P1;SDS_P2;PMS_P1;PMS_P2;Temp;Humidity;BMP_temperature;BMP_pressure;BME280_temperature;BME280_humidity;BME280_pressure;Samples;Min_cycle;Max_cycle;Signal;HPM_P1;HPM_P2
2024/01/02 00:00:23;;;;;;;;;0.00;0.00;;;;;-144.24;100.00;88799.25;5034347;28;66647;-73
2024/01/02 00:02:49;;;;;;;;;0.00;0.00;;;;;-144.24;100.00;88657.53;5035548;28;65244;-73
2024/01/02 00:05:15;;;;;;;;;0.00;0.00;;;;;-144.24;100.00;88544.16;5036098;28;45479;-73
2024/01/02 00:07:40;;;;;;;;;1.00;0.00;;;;;-144.24;100.00;88050.25;5032101;28;45417;-72
2024/01/02 00:10:06;;;;;;;;;0.67;0.00;;;;;-144.24;100.00;87275.06;5030072;28;45972;-74
2024/01/02 00:12:31;;;;;;;;;0.33;0.00;;;;;-144.24;100.00;87230.53;5029865;28;46345;-73
2024/01/02 00:14:56;;;;;;;;;0.00;0.00;;;;;-144.24;100.00;86811.66;5035187;28;69984;-73
2024/01/02 00:17:22;;;;;;;;;0.00;0.00;;;;;-144.24;100.00;86728.69;5028247;28;45336;-73
2024/01/02 00:19:47;;;;;;;;;0.00;0.00;;;;;-144.24;100.00;86609.28;5035561;28;45206;-73
2024/01/02 00:22:12;;;;;;;;;0.00;0.00;;;;;-144.24;100.00;86321.97;5027032;28;71291;-73
2024/01/02 00:24:38;;;;;;;;;0.00;0.00;;;;;-144.24;100.00;86135.84;5030674;28;45377;-73
2024/01/02 00:27:03;;;;;;;;;0.00;0.00;;;;;-144.24;100.00;85342.81;5035842;28;45167;-72
2024/01/02 00:29:29;;;;;;;;;0.00;0.00;;;;;-144.24;100.00;84287.06;5034088;28;45273;-72
2024/01/02 00:31:54;;;;;;;;;0.00;0.00;;;;;-144.24;100.00;84372.00;5035030;28;58153;-74
2024/01/02 00:34:20;;;;;;;;;1.00;0.00;;;;;-144.24;100.00;83969.56;5037803;28;70152;-74
2024/01/02 00:36:45;;;;;;;;;0.00;0.00;;;;;-144.24;100.00;84030.22;5037833;28;45458;-72
2024/01/02 00:39:10;;;;;;;;;0.00;0.00;;;;;-144.24;100.00;83836.13;5038024;28;60794;-72
2024/01/02 00:41:36;;;;;;;;;0.00;0.00;;;;;-144.24;100.00;85597.69;5046342;28;47021;-73
2024/01/02 00:44:01;;;;;;;;;0.00;0.00;;;;;-144.24;100.00;85395.41;5038450;28;45234;-73
2024/01/02 00:46:27;;;;;;;;;0.00;0.00;;;;;-144.24;100.00;85142.56;5039511;28;45392;-73
2024/01/02 00:48:52;;;;;;;;;0.00;0.00;;;;;-144.24;100.00;84784.56;5030068;28;45428;-72
2024/01/02 00:51:17;;;;;;;;;2.33;0.00;;;;;-144.24;100.00;84703.66;5028902;28;71577;-73
2024/01/02 00:53:42;;;;;;;;;0.00;0.00;;;;;-144.24;100.00;84311.31;5037567;28;54599;-73
2024/01/02 00:56:08;;;;;;;;;0.00;0.00;;;;;-144.24;100.00;83991.81;5035743;28;65714;-73
2024/01/02 00:58:33;;;;;;;;;0.00;0.00;;;;;-144.24;100.00;83898.78;5033911;28;67168;-73
2024/01/02 01:00:59;;;;;;;;;0.00;0.00;;;;;-144.24;100.00;83862.41;5036897;28;75079;-72
2024/01/02 01:03:25;;;;;;;;;1.00;0.00;;;;;-144.24;100.00;83698.63;5039259;28;45457;-72
2024/01/02 01:05:50;;;;;;;;;0.00;0.00;;;;;-144.24;100.00;83581.34;5038985;28;45278;-73
2024/01/02 01:08:15;;;;;;;;;1.00;0.00;;;;;-144.24;100.00;83538.88;5038601;28;45451;-75
2024/01/02 01:10:41;;;;;;;;;0.00;0.00;;;;;-144.24;100.00;83267.97;5037401;28;67872;-74
2024/01/02 01:13:06;;;;;;;;;0.00;0.00;;;;;-144.24;100.00;83029.41;5037918;28;60236;-74
2024/01/02 01:15:31;;;;;;;;;0.00;0.00;;;;;-144.24;100.00;82867.66;5038390;28;47594;-74
2024/01/02 01:17:57;;;;;;;;;0.00;0.00;;;;;-144.24;100.00;83181.03;5028885;28;49963;-73
2024/01/02 01:20:22;;;;;;;;;0.00;0.00;;;;;-144.24;100.00;83118.34;5032222;28;73327;-73
2024/01/02 01:22:50;;;;;;;;;0.00;0.00;;;;;-144.24;100.00;83098.13;5037565;28;58328;-74
2024/01/02 01:25:15;;;;;;;;;1.00;0.00;;;;;-144.24;100.00;82986.94;5028675;28;66857;-75
2024/01/02 01:27:40;;;;;;;;;0.00;0.00;;;;;-144.24;100.00;82970.78;5036413;28;61410;-73
2024/01/02 01:30:07;;;;;;;;;0.00;0.00;;;;;-144.24;100.00;82665.53;5036891;28;70210;-75
2024/01/02 01:32:32;;;;;;;;;0.00;0.00;;;;;-144.24;100.00;82473.50;5034870;28;45357;-74
2024/01/02 01:34:58;;;;;;;;;0.00;0.00;;;;;-144.24;100.00;82317.84;5038313;28;46961;-74
2024/01/02 01:37:23;;;;;;;;;0.00;0.00;;;;;-144.24;100.00;82200.63;5036085;28;45506;-74
2024/01/02 01:39:49;;;;;;;;;1.33;0.00;;;;;-144.24;100.00;82212.75;5038240;28;46395;-74
2024/01/02 01:42:14;;;;;;;;;0.00;0.00;;;;;-144.24;100.00;81909.56;5037285;28;57070;-73
2024/01/02 01:44:39;;;;;;;;;1.00;0.00;;;;;-144.24;100.00;82691.81;5036956;28;64542;-74
2024/01/02 01:47:05;;;;;;;;;0.00;0.00;;;;;-144.24;100.00;82752.44;5041104;28;45515;-74
2024/01/02 01:49:30;;;;;;;;;0.00;0.00;;;;;-144.24;100.00;82796.91;5029867;28;63882;-75
2024/01/02 01:51:57;;;;;;;;;0.33;0.00;;;;;-144.24;100.00;82540.19;5031757;28;45454;-74
2024/01/02 01:54:23;;;;;;;;;0.00;0.00;;;;;-144.24;100.00;81903.50;5052884;28;45389;-74
2024/01/02 01:56:48;;;;;;;;;0.00;0.00;;;;;-144.24;100.00;81869.16;5033516;28;45432;-74
2024/01/02 01:59:14;;;;;;;;;1.00;0.00;;;;;-144.24;100.00;81790.31;5052485;28;60514;-74
2024/01/02 02:01:40;;;;;;;;;0.00;0.00;;;;;-144.24;100.00;81806.50;5053829;28;45254;-74
2024/01/02 02:04:05;;;;;;;;;0.00;0.00;;;;;-144.24;100.00;81760.00;5037164;28;59724;-73
2024/01/02 02:06:31;;;;;;;;;0.00;0.00;;;;;-144.24;100.00;81846.91;5034802;28;46169;-75
2024/01/02 02:08:57;;;;;;;;;0.00;0.00;;;;;-144.24;100.00;81810.53;5036193;28;47687;-75
2024/01/02 02:11:22;;;;;;;;;0.00;0.00;;;;;-144.24;100.00;81865.09;5033996;28;45429;-75
2024/01/02 02:13:48;;;;;;;;;0.00;0.00;;;;;-144.24;100.00;81929.78;5038243;28;45345;-75
2024/01/02 02:16:14;;;;;;;;;0.00;0.00;;;;;-144.24;100.00;81903.50;5031087;28;45519;-74
2024/01/02 02:18:39;;;;;;;;;0.67;0.00;;;;;-144.24;100.00;81804.47;5037156;28;45667;-74
2024/01/02 02:21:05;;;;;;;;;0.00;0.00;;;;;-144.24;100.00;81697.34;5037611;28;45416;-74
2024/01/02 02:23:30;;;;;;;;;2.00;0.00;;;;;-144.24;100.00;81814.56;5018259;28;59431;-75
2024/01/02 02:25:55;;;;;;;;;0.00;0.00;;;;;-144.24;100.00;81873.19;5037610;28;45387;-76
2024/01/02 02:28:21;;;;;;;;;0.00;0.00;;;;;-144.24;100.00;81719.59;5035879;28;71407;-74
2024/01/02 02:30:46;;;;;;;;;0.00;0.00;;;;;-144.24;100.00;81919.66;5033630;28;45349;-73
2024/01/02 02:33:11;;;;;;;;;0.00;0.00;;;;;-144.24;100.00;81755.97;5035120;28;67574;-75
2024/01/02 02:35:37;;;;;;;;;0.00;0.00;;;;;-144.24;100.00;81620.56;5036430;28;64792;-73
2024/01/02 02:38:02;;;;;;;;;0.00;0.00;;;;;-144.24;100.00;81626.63;5036593;28;68839;-74
2024/01/02 02:40:27;;;;;;;;;1.00;0.00;;;;;-144.24;100.00;81521.53;5036424;28;45583;-74
2024/01/02 02:42:53;;;;;;;;;0.00;0.00;;;;;-144.24;100.00;80949.66;5066836;22;58152;-74
2024/01/02 02:45:18;;;;;;;;;0.00;0.00;;;;;-144.24;100.00;80883.00;5057751;28;45369;-73
2024/01/02 02:47:44;;;;;;;;;0.33;0.00;;;;;-144.24;100.00;80887.03;5075258;27;47405;-73
2024/01/02 02:50:09;;;;;;;;;0.00;0.00;;;;;-144.24;100.00;80672.84;5076882;27;51500;-74
2024/01/02 02:52:34;;;;;;;;;0.00;0.00;;;;;-144.24;100.00;80735.50;5075394;27;45523;-73
2024/01/02 02:55:00;;;;;;;;;0.00;0.00;;;;;-144.24;100.00;80491.03;5075553;28;52539;-74
2024/01/02 02:57:25;;;;;;;;;0.00;0.00;;;;;-144.24;100.00;80383.94;5076475;28;45945;-72
2024/01/02 02:59:51;;;;;;;;;0.33;0.00;;;;;-144.24;100.00;80284.94;5077006;27;45281;-73
2024/01/02 03:02:17;;;;;;;;;0.00;0.00;;;;;-144.24;100.00;80143.53;5076824;28;56346;-73
2024/01/02 03:04:42;;;;;;;;;0.00;0.00;;;;;-144.24;100.00;79943.53;5077229;28;45629;-73
2024/01/02 03:07:09;;;;;;;;;0.00;0.00;;;;;-144.24;100.00;80044.53;5077203;27;46491;-73
2024/01/02 03:09:34;;;;;;;;;0.00;0.00;;;;;-144.24;100.00;79884.97;5076889;27;45458;-72
2024/01/02 03:12:00;;;;;;;;;0.00;0.00;;;;;-144.24;100.00;80078.88;5076417;28;67064;-72
2024/01/02 03:14:25;;;;;;;;;0.00;0.00;;;;;-144.24;100.00;79998.09;5076986;28;45385;-74
2024/01/02 03:16:50;;;;;;;;;0.00;0.00;;;;;-144.24;100.00;80161.72;5074556;28;70999;-73
2024/01/02 03:19:16;;;;;;;;;0.33;0.00;;;;;-144.24;100.00;80202.13;5076648;28;45472;-72
2024/01/02 03:21:41;;;;;;;;;0.00;0.00;;;;;-144.24;100.00;80307.19;5058824;28;45364;-74
2024/01/02 03:24:06;;;;;;;;;0.00;0.00;;;;;-144.24;100.00;80155.66;5076909;28;45625;-73
2024/01/02 03:26:32;;;;;;;;;0.00;0.00;;;;;-144.24;100.00;80196.06;5057834;28;64123;-74
2024/01/02 03:28:57;;;;;;;;;0.67;0.00;;;;;-144.24;100.00;80200.09;5076939;28;45318;-73
2024/01/02 03:31:22;;;;;;;;;0.00;0.00;;;;;-144.24;100.00;80183.94;5079013;27;45447;-73
2024/01/02 03:33:48;;;;;;;;;0.00;0.00;;;;;-144.24;100.00;80252.63;5085450;27;45340;-73
2024/01/02 03:36:18;;;;;;;;;0.00;0.00;;;;;-144.24;100.00;79965.75;5075764;28;74282;-73
2024/01/02 03:38:45;;;;;;;;;0.00;0.00;;;;;-144.24;100.00;79965.75;5076797;28;45328;-72
2024/01/02 03:41:10;;;;;;;;;0.00;0.00;;;;;-144.24;100.00;79614.28;5076500;27;45428;-73
2024/01/02 03:43:35;;;;;;;;;0.00;0.00;;;;;-144.24;100.00;79790.03;5075389;27;66573;-73
2024/01/02 03:46:01;;;;;;;;;1.00;0.00;;;;;-144.24;100.00;79586.00;5077763;27;73303;-73
2024/01/02 03:48:26;;;;;;;;;0.00;0.00;;;;;-144.24;100.00;79648.63;5079682;27;45274;-73
2024/01/02 03:50:51;;;;;;;;;0.00;0.00;;;;;-144.24;100.00;79386.03;5076639;28;45229;-72
2024/01/02 03:53:17;;;;;;;;;0.00;0.00;;;;;-144.24;100.00;79373.91;5077110;27;45570;-73
2024/01/02 03:55:42;;;;;;;;;0.00;0.00;;;;;-144.24;100.00;79220.41;5074990;27;72411;-75
2024/01/02 03:58:07;;;;;;;;;0.00;0.00;;;;;-144.24;100.00;79283.03;5075586;28;69858;-73
2024/01/02 04:00:35;;;;;;;;;0.33;0.00;;;;;-144.24;100.00;79313.31;5075908;28;45385;-73
2024/01/02 04:03:00;;;;;;;;;1.00;0.00;;;;;-144.24;100.00;79111.34;5070135;28;45277;-74
2024/01/02 04:05:28;;;;;;;;;0.00;0.00;;;;;-144.24;100.00;78473.19;5058106;28;46171;-73
2024/01/02 04:07:54;;;;;;;;;0.00;0.00;;;;;-144.24;100.00;78576.19;5079079;28;45272;-72
2024/01/02 04:10:19;;;;;;;;;0.00;0.00;;;;;-144.24;100.00;78414.63;5078772;27;67798;-73
2024/01/02 04:12:44;;;;;;;;;0.00;0.00;;;;;-144.24;100.00;78459.06;5079409;28;62562;-74
2024/01/02 04:15:10;;;;;;;;;0.00;0.00;;;;;-144.24;100.00;78905.34;5078960;27;70532;-73
2024/01/02 04:17:35;;;;;;;;;0.00;0.00;;;;;-144.24;100.00;78883.13;5060958;28;69468;-73
2024/01/02 04:20:00;;;;;;;;;0.00;0.00;;;;;-144.24;100.00;78889.19;5078648;28;66451;-72
2024/01/02 04:22:26;;;;;;;;;0.00;0.00;;;;;-144.24;100.00;79010.38;5079211;28;61127;-74
2024/01/02 04:24:51;;;;;;;;;0.00;0.00;;;;;-144.24;100.00;78982.09;5078247;28;70512;-73
2024/01/02 04:27:16;;;;;;;;;0.00;0.00;;;;;-144.24;100.00;78949.78;5078978;28;64686;-72
2024/01/02 04:29:42;;;;;;;;;0.00;0.00;;;;;-144.24;100.00;78786.19;5079110;28;45918;-72
2024/01/02 04:32:07;;;;;;;;;0.00;0.00;;;;;-144.24;100.00;78798.31;5079620;28;45405;-73
2024/01/02 04:34:33;;;;;;;;;0.00;0.00;;;;;-144.24;100.00;78642.81;5078985;27;49328;-72
2024/01/02 04:36:58;;;;;;;;;0.00;0.00;;;;;-144.24;100.00;78568.09;5078845;28;72529;-73
2024/01/02 04:39:23;;;;;;;;;0.00;0.00;;;;;-144.24;100.00;78663.00;5079366;27;48802;-73
2024/01/02 04:41:49;;;;;;;;;0.00;0.00;;;;;-144.24;100.00;78681.19;5079117;28;45607;-72
2024/01/02 04:44:14;;;;;;;;;0.00;0.00;;;;;-144.24;100.00;78606.47;5078718;28;64030;-73
2024/01/02 04:46:39;;;;;;;;;0.00;0.00;;;;;-144.24;100.00;78560.03;5080270;27;73022;-74
2024/01/02 04:49:05;;;;;;;;;0.00;0.00;;;;;-144.24;100.00;78596.38;5079034;28;56302;-73
2024/01/02 04:51:30;;;;;;;;;0.00;0.00;;;;;-144.24;100.00;78560.03;5078712;28;56270;-74
2024/01/02 04:53:55;;;;;;;;;0.00;0.00;;;;;-144.24;100.00;78420.69;5079324;27;46429;-72
2024/01/02 04:56:20;;;;;;;;;1.00;0.00;;;;;-144.24;100.00;78511.56;5077843;28;71814;-72
2024/01/02 04:58:46;;;;;;;;;0.00;0.00;;;;;-144.24;100.00;78578.19;5078280;27;65155;-73
2024/01/02 05:01:11;;;;;;;;;0.00;0.00;;;;;-144.24;100.00;78372.22;5078275;27;62425;-73
2024/01/02 05:03:36;;;;;;;;;0.00;0.00;;;;;-144.24;100.00;78402.50;5077750;27;66628;-72
2024/01/02 05:06:02;;;;;;;;;0.00;0.00;;;;;-144.24;100.00;78539.81;5077953;28;69054;-73
2024/01/02 05:08:27;;;;;;;;;0.00;0.00;;;;;-144.24;100.00;78570.13;5078316;27;45483;-72
2024/01/02 05:10:53;;;;;;;;;0.00;0.00;;;;;-144.24;100.00;78792.25;5079139;27;45470;-72
2024/01/02 05:13:18;;;;;;;;;0.00;0.00;;;;;-144.24;100.00;78658.97;5078775;28;46433;-74
2024/01/02 05:15:44;;;;;;;;;0.00;0.00;;;;;-144.24;100.00;78828.59;5079719;27;45328;-73
2024/01/02 05:18:09;;;;;;;;;1.00;0.00;;;;;-144.24;100.00;78737.72;5078766;28;45329;-72
2024/01/02 05:20:34;;;;;;;;;0.00;0.00;;;;;-144.24;100.00;78331.84;5077890;27;63074;-72
2024/01/02 05:23:03;;;;;;;;;0.00;0.00;;;;;-144.24;100.00;78685.22;5078671;28;45625;-72
2024/01/02 05:25:29;;;;;;;;;0.00;0.00;;;;;-144.24;100.00;78654.94;5079018;28;45552;-72
2024/01/02 05:27:54;;;;;;;;;0.00;0.00;;;;;-144.24;100.00;78650.91;5078939;28;45420;-73
2024/01/02 05:30:20;;;;;;;;;0.00;0.00;;;;;-144.24;100.00;78562.03;5078341;28;47093;-73
2024/01/02 05:32:45;;;;;;;;;0.00;0.00;;;;;-144.24;100.00;78608.50;5077655;27;72731;-73
2024/01/02 05:35:10;;;;;;;;;0.33;0.00;;;;;-144.24;100.00;78531.75;5077813;27;65343;-72
2024/01/02 05:37:36;;;;;;;;;0.00;0.00;;;;;-144.24;100.00;78622.63;5078809;28;45569;-73
2024/01/02 05:40:01;;;;;;;;;0.00;0.00;;;;;-144.24;100.00;78594.34;5077837;27;61372;-73
2024/01/02 05:42:27;;;;;;;;;0.00;0.00;;;;;-144.24;100.00;78477.22;5078319;27;46848;-74
2024/01/02 05:44:52;;;;;;;;;0.00;0.00;;;;;-144.24;100.00;78299.53;5077931;28;45349;-73
2024/01/02 05:47:18;;;;;;;;;0.67;0.00;;;;;-144.24;100.00;78285.38;5083292;27;45464;-72
2024/01/02 05:49:43;;;;;;;;;0.00;0.00;;;;;-144.24;100.00;78299.53;5078280;27;45498;-75
2024/01/02 05:52:08;;;;;;;;;0.00;0.00;;;;;-144.24;100.00;78471.16;5077334;28;71067;-73
2024/01/02 05:54:34;;;;;;;;;0.00;0.00;;;;;-144.24;100.00;78493.38;5077213;28;65920;-72
2024/01/02 05:56:59;;;;;;;;;0.00;0.00;;;;;-144.24;100.00;78416.66;5060305;28;45427;-73
2024/01/02 05:59:24;;;;;;;;;0.00;0.00;;;;;-144.24;100.00;78350.00;5077592;28;57740;-74
2024/01/02 06:01:50;;;;;;;;;0.00;0.00;;;;;-144.24;100.00;78255.09;5077042;27;62115;-73
2024/01/02 06:04:15;;;;;;;;;0.00;0.00;;;;;-144.24;100.00;78263.19;5077414;28;68930;-73
2024/01/02 06:06:40;;;;;;;;;1.00;0.00;;;;;-144.24;100.00;78408.56;5077639;28;57300;-74
2024/01/02 06:09:06;;;;;;;;;0.00;0.00;;;;;-144.24;100.00;78243.00;5074043;27;63562;-73
2024/01/02 06:11:31;;;;;;;;;0.33;0.00;;;;;-144.24;100.00;78289.44;5062995;28;69499;-74
2024/01/02 06:13:56;;;;;;;;;0.00;0.00;;;;;-144.24;100.00;78339.91;5076175;28;71023;-74
2024/01/02 06:16:22;;;;;;;;;0.00;0.00;;;;;-144.24;100.00;78247.03;5077113;27;68143;-73
2024/01/02 06:18:47;;;;;;;;;0.00;0.00;;;;;-144.24;100.00;78422.72;5076935;27;66293;-73
2024/01/02 06:21:12;;;;;;;;;0.00;0.00;;;;;-144.24;100.00;78251.06;5076307;27;71340;-74
2024/01/02 06:23:38;;;;;;;;;0.00;0.00;;;;;-144.24;100.00;78222.78;5075926;27;65067;-73
2024/01/02 06:26:03;;;;;;;;;0.00;0.00;;;;;-144.24;100.00;78004.72;5077190;28;45194;-74
2024/01/02 06:28:29;;;;;;;;;0.00;0.00;;;;;-144.24;100.00;78051.16;5069160;28;45493;-73
2024/01/02 06:30:55;;;;;;;;;0.00;0.00;;;;;-144.24;100.00;78131.94;5060864;28;70963;-75
2024/01/02 06:33:20;;;;;;;;;1.00;0.00;;;;;-144.24;100.00;78107.69;5076857;27;45465;-73
2024/01/02 06:35:45;;;;;;;;;0.00;0.00;;;;;-144.24;100.00;78089.53;5077334;28;45424;-73
2024/01/02 06:38:11;;;;;;;;;0.00;0.00;;;;;-144.24;100.00;78065.31;5077309;28;45582;-73
2024/01/02 06:40:36;;;;;;;;;0.00;0.00;;;;;-144.24;100.00;77954.25;5075715;27;71046;-74
2024/01/02 06:43:02;;;;;;;;;0.00;0.00;;;;;-144.24;100.00;77752.34;5076398;27;45376;-73
2024/01/02 06:45:27;;;;;;;;;0.00;0.00;;;;;-144.24;100.00;77625.16;5076883;28;45552;-73
2024/01/02 06:47:53;;;;;;;;;0.00;0.00;;;;;-144.24;100.00;77770.50;5077015;28;45633;-73
2024/01/02 06:50:18;;;;;;;;;0.00;0.00;;;;;-144.24;100.00;76898.41;5076955;28;47310;-74
2024/01/02 06:52:43;;;;;;;;;1.00;0.00;;;;;-144.24;100.00;76351.41;5065604;28;45435;-75
2024/01/02 06:55:09;;;;;;;;;0.00;0.00;;;;;-144.24;100.00;76363.53;5076406;27;47366;-74
2024/01/02 06:57:34;;;;;;;;;0.00;0.00;;;;;-144.24;100.00;76256.56;5076653;27;56894;-73
2024/01/02 06:59:59;;;;;;;;;0.00;0.00;;;;;-144.24;100.00;76262.63;5076331;28;46871;-73
2024/01/02 07:02:25;;;;;;;;;0.00;0.00;;;;;-144.24;100.00;76022.44;5076968;27;45346;-74
2024/01/02 07:04:50;;;;;;;;;2.00;0.00;;;;;-144.24;100.00;75949.81;5077188;28;45344;-72
2024/01/02 07:07:15;;;;;;;;;0.00;0.00;;;;;-144.24;100.00;75879.16;5076542;28;64646;-74
2024/01/02 07:09:41;;;;;;;;;0.00;0.00;;;;;-144.24;100.00;75901.38;5075640;27;75317;-74
2024/01/02 07:12:07;;;;;;;;;0.00;0.00;;;;;-144.24;100.00;75972.00;5058100;27;68444;-73
2024/01/02 07:14:33;;;;;;;;;1.00;0.00;;;;;-144.24;100.00;75812.56;5076816;28;45359;-73
2024/01/02 07:16:59;;;;;;;;;0.00;0.00;;;;;-144.24;100.00;75869.06;5076547;27;45499;-75
2024/01/02 07:19:24;;;;;;;;;0.00;0.00;;;;;-144.24;100.00;75768.19;5075746;28;45625;-72
2024/01/02 07:21:49;;;;;;;;;0.00;0.00;;;;;-144.24;100.00;75802.47;5058067;28;70689;-74
2024/01/02 07:24:16;;;;;;;;;0.00;0.00;;;;;-144.24;100.00;75818.63;5076417;28;45422;-73
2024/01/02 07:26:41;;;;;;;;;0.00;0.00;;;;;-144.24;100.00;75869.06;5076272;27;45485;-73
2024/01/02 07:29:07;;;;;;;;;0.00;0.00;;;;;-144.24;100.00;75852.94;5074689;27;46577;-73
2024/01/02 07:31:34;;;;;;;;;1.00;0.00;;;;;-144.24;100.00;75856.97;5068571;27;62929;-73
2024/01/02 07:33:59;;;;;;;;;0.00;0.00;;;;;-144.24;100.00;75917.50;5075277;27;45564;-76
2024/01/02 07:36:25;;;;;;;;;0.00;0.00;;;;;-144.24;100.00;75826.69;5074639;27;45570;-74
2024/01/02 07:38:50;;;;;;;;;0.00;0.00;;;;;-144.24;100.00;75879.16;5074967;27;74748;-73
2024/01/02 07:41:16;;;;;;;;;0.00;0.00;;;;;-144.24;100.00;75836.78;5077460;27;45450;-74
2024/01/02 07:43:41;;;;;;;;;0.67;0.00;;;;;-144.24;100.00;75737.91;5059149;28;45348;-72
2024/01/02 07:46:06;;;;;;;;;0.00;0.00;;;;;-144.24;100.00;75772.22;5077070;27;45579;-72
2024/01/02 07:48:32;;;;;;;;;0.00;0.00;;;;;-144.24;100.00;75713.69;5074289;27;68552;-72
2024/01/02 07:50:57;;;;;;;;;0.00;0.00;;;;;-144.24;100.00;75778.25;5074240;27;72513;-73
2024/01/02 07:53:22;;;;;;;;;0.33;0.00;;;;;-144.24;100.00;75725.81;5075558;27;66232;-73
2024/01/02 07:55:48;;;;;;;;;0.00;0.00;;;;;-144.24;100.00;75745.97;5073977;27;62705;-72
2024/01/02 07:58:14;;;;;;;;;0.00;0.00;;;;;-144.24;100.00;75764.13;5075187;27;54333;-72
2024/01/02 08:00:39;;;;;;;;;0.00;0.00;;;;;-144.24;100.00;75859.00;5073968;27;45599;-72
2024/01/02 08:03:04;;;;;;;;;0.33;0.00;;;;;-144.24;100.00;76196.00;5073961;27;45578;-72
2024/01/02 08:05:30;;;;;;;;;0.00;0.00;;;;;-144.24;100.00;76214.19;5073507;27;45642;-74
2024/01/02 08:07:55;;;;;;;;;0.00;0.00;;;;;-144.24;100.00;76422.06;5072530;27;75718;-72
2024/01/02 08:10:20;;;;;;;;;0.00;0.00;;;;;-144.24;100.00;76321.13;5078224;27;72057;-73
2024/01/02 08:12:46;;;;;;;;;0.00;0.00;;;;;-144.24;100.00;76363.53;5072426;27;68039;-73
2024/01/02 08:15:12;;;;;;;;;0.00;0.00;;;;;-144.24;100.00;76440.22;5075183;27;45460;-72
2024/01/02 08:17:37;;;;;;;;;0.00;0.00;;;;;-144.24;100.00;76432.16;5074970;27;45743;-72
2024/01/02 08:20:03;;;;;;;;;0.00;0.00;;;;;-144.24;100.00;76569.41;5059904;27;74354;-73
2024/01/02 08:22:28;;;;;;;;;0.00;0.00;;;;;-144.24;100.00;76617.84;5076760;27;45481;-73
2024/01/02 08:24:54;;;;;;;;;0.00;0.00;;;;;-144.24;100.00;76720.78;5073135;28;64931;-75
2024/01/02 08:27:19;;;;;;;;;0.00;0.00;;;;;-144.24;100.00;76809.59;5076457;27;45637;-74
2024/01/02 08:29:44;;;;;;;;;0.67;0.00;;;;;-144.24;100.00;76781.34;5062539;28;45548;-72
2024/01/02 08:32:10;;;;;;;;;0.00;0.00;;;;;-144.24;100.00;76934.75;5078404;27;45365;-72
2024/01/02 08:34:35;;;;;;;;;0.67;0.00;;;;;-144.24;100.00;77059.91;5073686;27;58978;-72
2024/01/02 08:37:00;;;;;;;;;0.00;0.00;;;;;-144.24;100.00;77011.44;5073135;27;73717;-72
2024/01/02 08:39:26;;;;;;;;;0.00;0.00;;;;;-144.24;100.00;77001.34;5074198;27;45535;-72
2024/01/02 08:41:51;;;;;;;;;0.00;0.00;;;;;-144.24;100.00;76851.97;5073522;27;66549;-73
2024/01/02 08:44:16;;;;;;;;;3.00;0.00;;;;;-144.24;100.00;76765.19;5076796;27;60647;-73
2024/01/02 08:46:42;;;;;;;;;0.00;0.00;;;;;-144.24;100.00;76757.13;5075639;27;46697;-72
2024/01/02 08:49:08;;;;;;;;;0.00;0.00;;;;;-144.24;100.00;76541.13;5077751;27;62403;-76
2024/01/02 08:51:33;;;;;;;;;1.00;0.00;;;;;-144.24;100.00;76529.03;5072481;27;45335;-75
2024/01/02 08:53:59;;;;;;;;;0.00;0.00;;;;;-144.24;100.00;76547.19;5075156;27;47061;-73
2024/01/02 08:56:24;;;;;;;;;0.00;0.00;;;;;-144.24;100.00;76466.47;5077645;27;73526;-73
2024/01/02 08:58:49;;;;;;;;;0.00;0.00;;;;;-144.24;100.00;76740.97;5075898;27;71556;-71
2024/01/02 09:01:17;;;;;;;;;1.00;0.00;;;;;-144.24;100.00;76640.03;5077300;27;46097;-72
2024/01/02 09:03:43;;;;;;;;;1.00;0.00;;;;;-144.24;100.00;76734.91;5088681;27;45587;-73
2024/01/02 09:06:08;;;;;;;;;0.00;0.00;;;;;-144.24;100.00;76870.16;5080169;27;46699;-73
2024/01/02 09:08:33;;;;;;;;;0.00;0.00;;;;;-144.24;100.00;77025.56;5081347;27;68708;-74
2024/01/02 09:10:59;;;;;;;;;0.00;0.00;;;;;-144.24;100.00;77209.28;5078492;27;62128;-73
2024/01/02 09:13:24;;;;;;;;;0.00;0.00;;;;;-144.24;100.00;77338.47;5076823;27;45424;-71
2024/01/02 09:15:50;;;;;;;;;0.00;0.00;;;;;-144.24;100.00;76841.88;5076817;27;60806;-73
2024/01/02 09:18:15;;;;;;;;;0.00;0.00;;;;;-144.24;100.00;76922.63;5076912;27;71736;-68
2024/01/02 09:20:41;;;;;;;;;0.00;0.00;;;;;-144.24;100.00;76714.72;5076086;27;45482;-71
2024/01/02 09:23:06;;;;;;;;;0.00;0.00;;;;;-144.24;100.00;76619.84;5077260;27;45413;-73
2024/01/02 09:25:33;;;;;;;;;0.00;0.00;;;;;-144.24;100.00;76488.66;5073016;27;73725;-71
2024/01/02 09:28:00;;;;;;;;;1.00;0.00;;;;;-144.24;100.00;76369.59;5064750;27;45514;-71
2024/01/02 09:30:25;;;;;;;;;0.00;0.00;;;;;-144.24;100.00;76349.41;5062082;28;45762;-72
2024/01/02 09:32:50;;;;;;;;;0.00;0.00;;;;;-144.24;100.00;76335.28;5079892;27;64989;-71
2024/01/02 09:35:17;;;;;;;;;0.00;0.00;;;;;-144.24;100.00;76171.78;5076295;27;57994;-70
2024/01/02 09:37:43;;;;;;;;;0.00;0.00;;;;;-144.24;100.00;76024.47;5076466;27;45549;-71
2024/01/02 09:40:24;;;;;;;;;0.00;0.00;;;;;-144.24;100.00;75445.31;5076818;27;45410;-71
2024/01/02 09:43:01;;;;;;;;;1.00;0.00;;;;;-144.24;100.00;75005.44;5075801;28;45502;-71
2024/01/02 09:45:55;;;;;;;;;0.00;0.00;;;;;-144.24;100.00;74797.66;5076462;27;45312;-72
2024/01/02 09:48:34;;;;;;;;;0.00;0.00;;;;;-144.24;100.00;74948.97;5077116;27;45399;-72
2024/01/02 09:51:14;;;;;;;;;0.00;0.00;;;;;-144.24;100.00;74484.94;5078867;27;45545;-73
2024/01/02 09:53:39;;;;;;;;;0.00;0.00;;;;;-144.24;100.00;74410.31;5066515;28;45383;-73
2024/01/02 09:56:47;;;;;;;;;0.00;0.00;;;;;-144.24;100.00;74131.94;5077065;27;45944;-74
2024/01/02 09:59:27;;;;;;;;;0.00;0.00;;;;;-144.24;100.00;73835.41;5079689;27;45416;-75
2024/01/02 10:02:12;;;;;;;;;0.00;0.00;;;;;-144.24;100.00;73682.13;5076542;27;45439;-73
2024/01/02 10:05:03;;;;;;;;;0.00;0.00;;;;;-144.24;100.00;73742.63;5077900;27;45569;-72
2024/01/02 10:07:56;;;;;;;;;0.00;0.00;;;;;-144.24;100.00;73613.56;5069069;27;46928;-73
2024/01/02 10:10:33;;;;;;;;;0.33;0.00;;;;;-144.24;100.00;73490.53;5073530;27;45347;-71
2024/01/02 10:12:59;;;;;;;;;0.00;0.00;;;;;-144.24;100.00;73821.28;5078780;27;45565;-75
2024/01/02 10:15:31;;;;;;;;;1.00;0.00;;;;;-144.24;100.00;73988.72;5076505;27;45519;-75
2024/01/02 10:18:04;;;;;;;;;0.00;0.00;;;;;-144.24;100.00;74018.97;5064483;27;45835;-73
2024/01/02 10:20:57;;;;;;;;;0.00;0.00;;;;;-144.24;100.00;73956.44;5076585;27;45550;-72
2024/01/02 10:23:53;;;;;;;;;0.00;0.00;;;;;-144.24;100.00;73549.00;5083195;27;45487;-72
2024/01/02 10:26:19;;;;;;;;;0.00;0.00;;;;;-144.24;100.00;73502.63;5064563;27;45492;-73
2024/01/02 10:28:49;;;;;;;;;0.00;0.00;;;;;-144.24;100.00;73625.66;5077358;27;46669;-71
2024/01/02 10:31:25;;;;;;;;;0.00;0.00;;;;;-144.24;100.00;73633.72;5062174;28;45520;-72
2024/01/02 10:34:29;;;;;;;;;0.00;0.00;;;;;-144.24;100.00;73397.75;5061124;28;45406;-73
2024/01/02 10:37:03;;;;;;;;;0.00;0.00;;;;;-144.24;100.00;73317.06;5072808;27;46323;-71
2024/01/02 10:39:39;;;;;;;;;1.00;0.00;;;;;-144.24;100.00;73547.00;5072651;28;46351;-70
2024/01/02 10:42:12;;;;;;;;;0.00;0.00;;;;;-144.24;100.00;73557.06;5080727;27;45471;-71
2024/01/02 10:45:00;;;;;;;;;0.00;0.00;;;;;-144.24;100.00;73294.91;5076632;27;45658;-71
2024/01/02 10:47:52;;;;;;;;;0.00;0.00;;;;;-144.24;100.00;73405.81;5080213;27;45316;-71
2024/01/02 10:50:23;;;;;;;;;0.00;0.00;;;;;-144.24;100.00;73365.47;5072825;27;46441;-71
2024/01/02 10:53:15;;;;;;;;;0.00;0.00;;;;;-144.24;100.00;73603.47;5066478;27;45848;-69
2024/01/02 10:55:48;;;;;;;;;0.67;0.00;;;;;-144.24;100.00;73181.97;5062320;27;45403;-72
2024/01/02 10:58:19;;;;;;;;;0.00;0.00;;;;;-144.24;100.00;73518.75;5070768;27;45471;-69
2024/01/02 11:01:16;;;;;;;;;0.00;0.00;;;;;-144.24;100.00;73093.22;5075194;27;47474;-70
2024/01/02 11:04:06;;;;;;;;;0.00;0.00;;;;;-144.24;100.00;72706.06;5080953;27;45508;-69
2024/01/02 11:06:47;;;;;;;;;0.00;0.00;;;;;-144.24;100.00;72708.06;5075921;27;45455;-74
2024/01/02 11:09:24;;;;;;;;;0.00;0.00;;;;;-144.24;100.00;72643.53;5074290;27;45525;-73